Jessore, Bangladesh
Current Conditions -  °F | °C
As of 6:20 PM on Wednesday 22 Oct 2014 (Local Time) from VECC Reporting Station
Haze Haze  
Wind Chill: 84°   Ceiling: Unl
Heat Index: 88°   Visibility: 2mi
Dew Point: 70°   Wind: 3mph
Humidity: 62%   Direction: 320°NW
Pressure: 29.85"   Gusts: NA
Location:  23.15°N, 89.21°E
Report Text: VECC 221220Z 32003KT 3200 HZ NSC 29/21 Q1011 BECMG 3000 HZ
Loading
Personal Weather Stations






























Interactive Weather Map
Tropical Storm Tracking
New forecast layout! Learn more

10-Day Weather Forecast

Advertisements
Track Severe Weather on mobile